RJCCRJCN

Guest
Details From RJCC - NEW CHITOSE
To RJCN - NAKASHIBETSU
Flight Number -
Tags generated
Created
Modified
Stats Distance 151 nm / 280 km
Max Altitude 19,300 ft / 5,883 m
Waypoints 3
Social Downloads 3
Likes 0
Share VATSIM

Download

Looking for another format? Having issues loading an existing format? Contact us
Advertisement - Login to hide

Notes

Basic altitude profile: - Ascent Rate: 2500ft/min - Ascent Speed: 250kts - Cruise Altitude: 35000ft - Cruise Speed: 420kts - Descent Rate: 1500ft/min - Descent Speed: 250kts Options: - Use NATs: yes - Use PACOTS: yes - Use low airways: yes - Use high airways: yes

Route

RJCC NOTAK RJCN

ID Type Via Altitude Latitude Longitude Leg Dist Tot Dist Heading (true) Name
O RJCC APT - 0 ft / 0 m 42.77521˚ 141.69228˚ - 0 nm - NEW CHITOSE
NOTAK FIX - 19,300 ft / 5,883 m 43.09207˚ 143.00691˚ 60 nm 60 nm 71° / 72° -
O RJCN APT - 0 ft / 0 m 43.57743˚ 144.95979˚ 90 nm 151 nm 70° / 72° NAKASHIBETSU

Altitude Profile

Advertisement - Login to hide

RJCC

Details ICAO RJCC (CTS)
Name NEW CHITOSE
Region Japan
Timezone Asia/Tokyo (UTC+9.0)
Stats Elevation 82 ft / 25 m (AMSL)
Location 42.775206° 141.692283°
Runways 2
Magnetic Variation 9.390° W

METAR

RJCC 150230Z 35002KT 9999 FEW030 BKN040 M01/M04 Q1019

Decode

TAF

TAF RJCC 142305Z 1500/1606 36005KT 9999 FEW030 SCT050 BECMG 1507/1509 17006KT BECMG 1518/1521 34006KT TEMPO 1518/1521 1500 -SHSN FEW005 BKN008 TEMPO 1521/1600 0500 SHSN VV003 TEMPO 1600/1603 1500 -SHSN FEW005 BKN008

Decode

Departure Runways

ID Width Length Bearing (true) Bearing (mag) Surface Threshold Offset Overrun Length
01L 200 ft / 61 m 9,859 ft / 3,005 m 352.64° 2.03° Asphalt 0 ft / 0 m 185 ft / 56 m
01R 200 ft / 61 m 9,854 ft / 3,004 m 352.64° 2.03° Asphalt 0 ft / 0 m 185 ft / 56 m
19L 200 ft / 61 m 9,854 ft / 3,004 m 172.64° 182.03° Asphalt 0 ft / 0 m 185 ft / 56 m
19R 200 ft / 61 m 9,859 ft / 3,005 m 172.63° 182.02° Asphalt 0 ft / 0 m 185 ft / 56 m

RJCN

Details ICAO RJCN (SHB)
Name NAKASHIBETSU
Region Japan
Timezone Asia/Tokyo (UTC+9.0)
Stats Elevation 234 ft / 71 m (AMSL)
Location 43.577427° 144.959791°
Runways 1
Magnetic Variation 8.929° W

METAR

RJCN 150200Z 22008KT 9999 FEW030 BKN/// M00/M06 Q1016

Decode

TAF

Not found

Destination Runways

ID Width Length Bearing (true) Bearing (mag) Surface Threshold Offset Overrun Length
08 150 ft / 46 m 6,549 ft / 1,996 m 70.96° 79.89° Asphalt 0 ft / 0 m 200 ft / 61 m
26 150 ft / 46 m 6,549 ft / 1,996 m 250.97° 259.90° Asphalt 0 ft / 0 m 200 ft / 61 m

Approach Navaids

Runway Type Ident Frequency Range Bearing (true) Bearing (mag) Slope Elevation
08 Localiser INS 109.35 MHz 18 nm / 33 km 70.97° 79.90° - 234 ft / 71 m (AMSL)
08 Glidescope INS 109.35 MHz 10 nm / 19 km 70.97° 79.89° 3.00° 234 ft / 71 m (AMSL)
08 DME INS 109.35 MHz 18 nm / 33 km - - - 234 ft / 71 m (AMSL)